DRRN/NIM METAR and TAF weather

Enter ICAO airport designator
Station Type Date Time Source
DRRN METAR 2020/01/21 21:00 UTC NOAA

DRRN 212100Z 07005KT 2000 DU NSC 26/02 Q1014 NOSIG


Station Type Date Time Source
DRRN Decoded METAR 2020/01/21 21:00 UTC NOAA

Niamey-Aero, Niger (DRRN) 13-29N 002-10E 227M
Jan 21, 2020 - 04:00 PM EST / 2020.01.21 2100 UTC
Wind: from the ENE (070 degrees) at 6 MPH (5 KT):0
Visibility: 1 mile(s):0
Weather: widespread dust
Temperature: 78 F (26 C)
Dew Point: 35 F (2 C)
Relative Humidity: 20%
Pressure (altimeter): 29.94 in. Hg (1014 hPa)
ob: DRRN 212100Z 07005KT 2000 DU NSC 26/02 Q1014 NOSIG
cycle: 21

Station Type Date Time Source
DRRN TAF 2020/01/21 18:21 UTC NOAA

TAF DRRN 211700Z 2118/2224 06008KT 2000 DU NSC
TEMPO 2118/2120 1000
TEMPO 2206/2212 10018KT 1000 BLDU

Example: see airport list